createdAt,value
2022-11-08T00:02:12.122Z,35.88
2022-11-08T00:04:39.145Z,32.13
2022-11-08T00:07:24.394Z,34.55
2022-11-08T00:10:09.272Z,35.03
2022-11-08T00:12:54.196Z,32.00
2022-11-08T00:15:20.764Z,33.33
2022-11-08T00:17:47.420Z,37.28
2022-11-08T00:20:14.070Z,31.45
2022-11-08T00:22:40.654Z,31.88
2022-11-08T00:25:07.725Z,32.55
2022-11-08T00:27:34.330Z,29.63
2022-11-08T00:30:01.039Z,28.90
2022-11-08T00:32:27.648Z,29.40
2022-11-08T00:34:54.381Z,36.40
2022-11-08T00:37:22.676Z,30.65
2022-11-08T00:39:49.791Z,36.55
2022-11-08T00:42:18.003Z,31.00
2022-11-08T00:44:44.643Z,29.55
2022-11-08T00:47:11.240Z,31.85
2022-11-08T00:49:37.871Z,35.60
2022-11-08T00:52:04.646Z,31.90
2022-11-08T00:54:31.248Z,33.10
2022-11-08T00:56:59.499Z,33.97
2022-11-08T00:59:26.108Z,33.33
2022-11-08T01:01:52.894Z,34.92
2022-11-08T01:04:19.993Z,32.10
2022-11-08T01:06:47.212Z,35.17
2022-11-08T01:09:15.576Z,34.78
2022-11-08T01:11:46.427Z,32.42
2022-11-08T01:14:14.313Z,31.50
2022-11-08T01:16:41.771Z,33.25
2022-11-08T01:19:10.524Z,30.30
2022-11-08T01:21:37.497Z,29.58
2022-11-08T01:24:04.397Z,30.38
2022-11-08T01:26:32.560Z,33.90
2022-11-08T01:28:59.228Z,31.92
2022-11-08T01:31:32.191Z,29.13
2022-11-08T01:33:59.590Z,32.03
2022-11-08T01:36:28.191Z,34.30
2022-11-08T01:38:56.078Z,33.47
2022-11-08T01:41:24.989Z,30.17
2022-11-08T01:43:56.787Z,31.05
2022-11-08T01:46:33.598Z,31.35
2022-11-08T01:49:15.579Z,32.42
2022-11-08T01:51:47.329Z,28.83
2022-11-08T01:54:18.292Z,28.67
2022-11-08T01:56:45.444Z,30.63
2022-11-08T01:59:15.342Z,32.47
2022-11-08T02:01:42.213Z,25.75
2022-11-08T02:04:09.911Z,29.85
2022-11-08T02:06:39.305Z,33.00
2022-11-08T02:09:09.505Z,31.77
2022-11-08T02:11:36.660Z,30.88
2022-11-08T02:14:05.807Z,29.05
2022-11-08T02:16:32.414Z,29.70
2022-11-08T02:18:59.595Z,31.85
2022-11-08T02:21:34.322Z,27.88
2022-11-08T02:24:03.195Z,30.67
2022-11-08T02:26:33.035Z,36.33
2022-11-08T02:29:00.680Z,31.77
2022-11-08T02:31:27.221Z,31.55
2022-11-08T02:33:53.787Z,32.95
2022-11-08T02:36:23.497Z,29.55
2022-11-08T02:38:55.989Z,31.40
2022-11-08T02:41:22.555Z,32.08
2022-11-08T02:43:49.969Z,27.33
2022-11-08T02:46:16.549Z,32.03
2022-11-08T02:48:43.139Z,28.48
2022-11-08T02:51:09.767Z,26.80
2022-11-08T02:53:36.364Z,26.85
2022-11-08T02:56:03.046Z,28.17
2022-11-08T02:58:29.695Z,26.75
2022-11-08T03:00:56.398Z,29.85
2022-11-08T03:03:23.106Z,30.35
2022-11-08T03:05:50.477Z,32.22
2022-11-08T03:08:17.455Z,28.92
2022-11-08T03:10:44.178Z,30.67
2022-11-08T03:13:10.851Z,31.08
2022-11-08T03:15:37.449Z,30.75
2022-11-08T03:18:04.177Z,30.80
2022-11-08T03:20:33.390Z,34.70
2022-11-08T03:23:02.404Z,31.08
2022-11-08T03:25:29.487Z,84.30
2022-11-08T03:27:56.730Z,48.17
2022-11-08T03:30:23.306Z,33.20
2022-11-08T03:32:50.269Z,30.90
2022-11-08T03:35:17.541Z,65.57
2022-11-08T03:37:55.406Z,36.17
2022-11-08T03:40:24.872Z,38.30
2022-11-08T03:42:51.521Z,38.45
2022-11-08T03:45:18.699Z,50.35
2022-11-08T03:47:47.138Z,49.55
2022-11-08T03:50:15.460Z,50.03
2022-11-08T03:52:53.090Z,51.58
2022-11-08T03:55:22.173Z,55.35
2022-11-08T03:57:49.799Z,52.70
2022-11-08T04:00:19.747Z,48.10
2022-11-08T04:02:46.755Z,47.17
2022-11-08T04:05:15.180Z,34.90
2022-11-08T04:07:42.015Z,39.05
2022-11-08T04:10:09.940Z,44.28
2022-11-08T04:13:02.482Z,29.35
2022-11-08T04:15:31.120Z,43.95
2022-11-08T04:18:18.387Z,54.33
2022-11-08T04:21:07.262Z,34.05
2022-11-08T04:23:36.823Z,36.67
2022-11-08T04:26:08.487Z,38.70
2022-11-08T04:28:36.506Z,30.30
2022-11-08T04:31:15.600Z,35.78
2022-11-08T04:33:42.409Z,36.03
2022-11-08T04:36:12.797Z,32.03
2022-11-08T04:38:39.511Z,33.75
2022-11-08T04:41:16.560Z,34.05
2022-11-08T04:43:43.588Z,30.60
2022-11-08T04:46:12.676Z,23.58
2022-11-08T04:48:39.730Z,30.77
2022-11-08T04:51:19.072Z,26.05
2022-11-08T04:53:46.325Z,22.88
2022-11-08T04:56:15.365Z,26.73
2022-11-08T04:58:45.753Z,29.00
2022-11-08T05:01:17.784Z,25.95
2022-11-08T05:03:48.880Z,26.45
2022-11-08T05:06:22.098Z,26.17
2022-11-08T05:08:49.622Z,25.60
2022-11-08T05:11:21.494Z,26.45
2022-11-08T05:13:49.515Z,26.17
2022-11-08T05:16:19.919Z,25.77
2022-11-08T05:18:46.582Z,32.33
2022-11-08T05:21:34.285Z,28.95
2022-11-08T05:24:02.048Z,27.20
2022-11-08T05:26:29.948Z,29.13
2022-11-08T05:28:58.152Z,28.23
2022-11-08T05:31:24.770Z,25.63
2022-11-08T05:33:52.943Z,26.23
2022-11-08T05:36:19.774Z,27.42
2022-11-08T05:38:46.722Z,25.92
2022-11-08T05:41:19.056Z,29.60
2022-11-08T05:43:47.952Z,26.00
2022-11-08T05:46:15.711Z,30.20
2022-11-08T05:48:43.229Z,28.45
2022-11-08T05:51:12.252Z,31.45
2022-11-08T05:53:39.735Z,28.60
2022-11-08T05:56:06.686Z,25.05
2022-11-08T05:58:38.237Z,27.05
2022-11-08T06:01:07.887Z,28.17
2022-11-08T16:54:32.044Z,32.50
2022-11-08T16:57:20.626Z,32.60
2022-11-08T16:59:45.972Z,30.75
2022-11-08T17:02:30.659Z,25.85
2022-11-08T17:04:58.452Z,26.50
2022-11-08T17:07:26.821Z,26.67
2022-11-08T17:09:53.953Z,24.15
2022-11-08T17:12:21.217Z,23.75
2022-11-08T17:14:47.867Z,29.38
2022-11-08T17:17:15.178Z,26.85
2022-11-08T17:19:41.956Z,24.30
2022-11-08T17:22:19.189Z,21.08
2022-11-08T17:24:46.012Z,25.88
2022-11-08T17:27:12.577Z,24.55
2022-11-08T17:29:39.125Z,24.13
2022-11-08T17:32:06.105Z,23.92
2022-11-08T17:34:32.702Z,19.15
2022-11-08T17:36:59.288Z,30.42
2022-11-08T17:39:29.674Z,29.73
2022-11-08T17:42:07.610Z,23.65
2022-11-08T17:47:20.918Z,24.42
2022-11-08T17:50:03.046Z,18.65
2022-11-08T17:52:29.605Z,31.90
2022-11-08T17:54:59.017Z,25.95
2022-11-08T17:57:26.149Z,29.92
2022-11-08T17:59:52.734Z,25.25
2022-11-08T18:02:19.431Z,19.80
2022-11-08T18:04:48.910Z,25.02
2022-11-08T18:07:15.550Z,32.92
2022-11-08T18:09:42.214Z,35.22
2022-11-08T18:12:09.628Z,47.35
2022-11-08T18:14:36.262Z,28.10
2022-11-08T18:17:05.105Z,26.88
2022-11-08T18:19:36.448Z,32.75
2022-11-08T18:22:04.691Z,31.30
2022-11-08T18:24:33.702Z,22.75
2022-11-08T18:27:00.346Z,34.88
2022-11-08T18:29:26.916Z,53.05
2022-11-08T18:31:53.674Z,68.10
2022-11-08T18:34:21.216Z,43.53
2022-11-08T18:36:49.261Z,57.80
2022-11-08T18:39:19.410Z,52.67
2022-11-08T18:41:48.827Z,35.85
2022-11-08T18:44:15.533Z,21.40
2022-11-08T18:46:44.616Z,30.15
2022-11-08T18:49:37.336Z,38.58
2022-11-08T18:52:06.649Z,43.65
2022-11-08T18:54:33.372Z,42.50
2022-11-08T18:56:59.979Z,41.03
2022-11-08T19:00:08.346Z,30.98
2022-11-08T19:02:38.168Z,36.88
2022-11-08T19:05:05.254Z,28.98
2022-11-08T19:07:31.954Z,20.98
2022-11-08T19:10:00.870Z,32.88
2022-11-08T19:12:30.811Z,24.58
2022-11-08T19:14:57.369Z,25.70
2022-11-08T19:17:24.768Z,27.75
2022-11-08T19:19:51.421Z,25.63
2022-11-08T19:22:18.035Z,27.08
2022-11-08T19:24:45.317Z,20.70
2022-11-08T19:27:34.927Z,21.73
2022-11-08T19:30:02.480Z,20.27
2022-11-08T19:32:29.033Z,18.17
2022-11-08T19:34:55.631Z,20.42
2022-11-08T19:37:22.257Z,20.20
2022-11-08T19:39:49.052Z,14.73
2022-11-08T19:42:17.883Z,16.23
2022-11-08T19:44:44.485Z,19.05
2022-11-08T19:47:14.235Z,19.38
2022-11-08T19:49:40.923Z,19.08
2022-11-08T19:52:07.534Z,21.48
2022-11-08T19:54:35.200Z,20.20
2022-11-08T19:57:04.789Z,20.25
2022-11-08T19:59:32.061Z,19.77
2022-11-08T20:02:00.056Z,22.38
2022-11-08T20:04:29.798Z,20.83
2022-11-08T20:06:57.260Z,19.10
2022-11-08T20:09:29.991Z,17.15
2022-11-08T20:11:57.339Z,18.02
2022-11-08T20:14:26.713Z,14.75
2022-11-08T20:16:54.201Z,12.35
2022-11-08T20:19:21.419Z,17.05
2022-11-08T20:21:49.144Z,13.55
2022-11-08T20:24:16.454Z,15.85
2022-11-08T20:26:43.780Z,16.45
2022-11-08T20:32:01.749Z,18.02
2022-11-08T20:34:29.799Z,11.43
2022-11-08T20:36:57.206Z,16.23
2022-11-08T20:39:23.800Z,15.30
2022-11-08T20:41:51.972Z,15.70
2022-11-08T20:44:20.186Z,15.43
2022-11-08T20:46:46.768Z,11.80
2022-11-08T20:49:15.294Z,15.80
2022-11-08T20:51:41.911Z,14.77
2022-11-08T20:54:12.316Z,16.02
2022-11-08T20:56:41.414Z,13.68
2022-11-08T20:59:08.270Z,15.80
2022-11-08T21:01:36.120Z,11.88
2022-11-08T21:04:03.623Z,15.48
2022-11-08T21:06:35.521Z,16.50
2022-11-08T21:09:23.359Z,15.85
2022-11-08T21:11:50.763Z,15.18
2022-11-08T21:14:17.424Z,15.35
2022-11-08T21:17:14.700Z,15.93
2022-11-08T21:19:30.638Z,13.90
2022-11-08T21:22:15.041Z,13.38
2022-11-08T21:24:43.503Z,13.88
2022-11-08T21:27:10.382Z,10.93
2022-11-08T21:29:37.038Z,13.90
2022-11-08T21:32:04.345Z,15.98
2022-11-08T21:34:32.510Z,12.40
2022-11-08T21:36:59.943Z,12.35
2022-11-08T21:39:27.555Z,14.35
2022-11-08T21:41:54.115Z,13.27
2022-11-08T21:44:20.924Z,13.90
2022-11-08T21:46:48.296Z,12.82
2022-11-08T21:49:14.940Z,12.55
2022-11-08T21:51:41.552Z,13.45
2022-11-08T21:54:08.518Z,12.85
2022-11-08T21:56:35.357Z,10.60
2022-11-08T21:59:03.100Z,14.65
2022-11-08T22:01:34.640Z,12.68
2022-11-08T22:04:01.279Z,11.68
2022-11-08T22:06:28.615Z,12.45
2022-11-08T22:08:55.483Z,9.75
2022-11-08T22:11:22.365Z,13.57
2022-11-08T22:13:48.961Z,11.70
2022-11-08T22:16:16.569Z,13.27
2022-11-08T22:19:03.719Z,11.80
2022-11-08T22:21:40.288Z,10.23
2022-11-08T22:24:12.437Z,10.50
2022-11-08T22:26:40.004Z,12.88
2022-11-08T22:29:07.826Z,11.20
2022-11-08T22:31:34.700Z,12.88
2022-11-08T22:34:02.089Z,11.50
2022-11-08T22:36:30.338Z,11.10
2022-11-08T22:38:56.951Z,11.73
2022-11-08T22:41:23.944Z,11.10
2022-11-08T22:43:51.633Z,11.40
2022-11-08T22:46:18.786Z,10.70
2022-11-08T22:48:45.528Z,10.10
2022-11-08T22:51:15.344Z,10.38
2022-11-08T22:53:46.449Z,10.80
2022-11-08T22:56:13.105Z,9.65
2022-11-08T22:58:40.327Z,10.93
2022-11-08T23:01:10.744Z,9.75
2022-11-08T23:03:37.287Z,11.38
2022-11-08T23:06:04.128Z,10.98
2022-11-08T23:08:31.053Z,10.20
2022-11-08T23:11:20.290Z,12.18
2022-11-08T23:14:05.960Z,12.15
2022-11-08T23:16:34.675Z,11.10
2022-11-08T23:19:22.031Z,16.92
2022-11-08T23:22:07.246Z,12.45
2022-11-08T23:24:33.840Z,13.95
2022-11-08T23:27:21.283Z,13.68
2022-11-08T23:30:06.699Z,8.00
2022-11-08T23:32:35.980Z,14.82
2022-11-08T23:35:02.938Z,13.00
2022-11-08T23:37:29.883Z,9.60
2022-11-08T23:40:15.204Z,12.73
2022-11-08T23:43:00.341Z,15.13
2022-11-08T23:45:29.259Z,14.65
2022-11-08T23:47:55.866Z,15.43
2022-11-08T23:50:22.479Z,12.95
2022-11-08T23:52:49.723Z,15.15
2022-11-08T23:55:17.200Z,15.05
2022-11-08T23:57:43.791Z,11.55
